Shawnee, Wyoming
Current Conditions -  °F | °C
As of 9:53 PM on Friday 28 Nov 2014 (Local Time) from KDGW Reporting Station
Clear Clear  
Wind Chill: 52°   Ceiling: Unl
Heat Index: 52°   Visibility: 10mi
Dew Point: 14°   Wind: 21mph
Humidity: 22%   Direction: 270°W
Pressure: 29.63"   Gusts: 31mph
Location:  42.75°N, 105.01°W
Report Text: KDGW 290453Z AUTO 27018G27KT 10SM CLR 11/M10 A2963 RMK AO2 PK WND 25033/0357 SLP001 T01111100
Loading
Personal Weather Stations






























Interactive Weather Map New forecast layout! Learn more

10-Day Weather Forecast

Advertisements
Track Severe Weather on mobile